Terminal Aerodrome Forecast
Issued by NWS

Home | Current Version | Previous Version | Text Only | Print | Product List | Glossary Off
Versions: 1 2 3 4 5 6 7 8 9 10 11 12 13 14 15 16 17

000
FTUS43 KBIS 251700
TAFMOT
TAF
KMOT 251738Z 2518/2618 27015G22KT P6SM BKN025 OVC040
     FM252100 30015KT P6SM SCT025 BKN050
     FM260100 29006KT P6SM SCT035 SCT140
     FM261600 21006KT P6SM SCT040 SCT100=

USA.gov is the U.S. government's official web portal to all federal, state and local government web resources and services.